Weather at Cherry Flat Landing Strip

Public forecast

Using degrees Fahrenheit for public forecast. Weather courtesy of forecast.io.

Closest aviation weather report (METAR) to Cherry Flat Landing Strip

Closest report is Reid-Hillview Airport of Santa Clara County, 4.2 nm (7.7 km) SW. Retrieved 2021/09/18 15:47 UTC (55 minutes ago):

KRHV 181547Z 14004KT 10SM BKN026 16/10 A3008

Closest aviation forecast (TAF) to Cherry Flat Landing Strip

Closest forecast is Norman Y. Mineta San Jose International Airport, 8.0 nm (14.8 km) W. Retrieved 2021/09/18 12:45 UTC (4 hours ago):

TAF KSJC 181143Z 1812/1912 15006KT P6SM SCT015 TEMPO 1812/1815 BKN015 FM182000 30010KT P6SM BKN035 FM190500 31007KT P6SM BKN050 FM190900 30005KT P6SM BKN025 TEMPO 1910/1912 6SM -RA BR OVC020